createdAt,value
2018-07-26T00:00:20.651Z,21.40
2018-07-26T00:02:48.910Z,21.30
2018-07-26T00:05:17.421Z,21.20
2018-07-26T00:07:45.670Z,21.20
2018-07-26T00:10:13.888Z,21.20
2018-07-26T00:12:42.305Z,21.20
2018-07-26T00:15:10.553Z,21.30
2018-07-26T00:17:38.829Z,21.30
2018-07-26T00:20:07.540Z,21.30
2018-07-26T00:22:35.752Z,21.30
2018-07-26T00:25:04.027Z,21.30
2018-07-26T00:27:32.540Z,21.20
2018-07-26T00:30:00.757Z,21.20
2018-07-26T00:32:28.962Z,21.10
2018-07-26T00:34:57.213Z,21.10
2018-07-26T00:37:25.490Z,21.00
2018-07-26T00:39:53.713Z,20.90
2018-07-26T00:44:49.954Z,20.80
2018-07-26T00:47:18.177Z,20.70
2018-07-26T00:49:46.673Z,20.70
2018-07-26T00:52:14.892Z,20.80
2018-07-26T00:54:43.139Z,20.80
2018-07-26T00:57:11.396Z,20.60
2018-07-26T00:59:39.615Z,20.60
2018-07-26T01:02:07.823Z,20.60
2018-07-26T01:04:36.034Z,20.50
2018-07-26T01:07:04.285Z,20.50
2018-07-26T01:09:32.506Z,20.50
2018-07-26T01:12:00.889Z,20.50
2018-07-26T01:14:29.123Z,20.40
2018-07-26T01:16:57.384Z,20.40
2018-07-26T01:19:25.589Z,20.40
2018-07-26T01:21:53.826Z,20.40
2018-07-26T01:24:22.046Z,20.40
2018-07-26T01:26:50.497Z,20.40
2018-07-26T01:29:20.242Z,20.40
2018-07-26T01:31:51.675Z,20.40
2018-07-26T01:34:20.188Z,20.40
2018-07-26T01:36:48.409Z,20.40
2018-07-26T01:39:16.637Z,20.40
2018-07-26T01:41:44.866Z,20.40
2018-07-26T01:44:18.419Z,20.40
2018-07-26T01:46:46.654Z,20.40
2018-07-26T01:49:14.872Z,20.40
2018-07-26T01:51:43.214Z,20.40
2018-07-26T01:54:11.429Z,20.40
2018-07-26T01:56:39.655Z,20.40
2018-07-26T01:59:07.904Z,20.40
2018-07-26T02:01:36.103Z,20.40
2018-07-26T02:04:04.331Z,20.40
2018-07-26T02:06:32.535Z,20.30
2018-07-26T02:09:00.756Z,20.20
2018-07-26T02:11:28.994Z,20.20
2018-07-26T02:13:57.213Z,20.20
2018-07-26T02:16:25.462Z,20.20
2018-07-26T02:18:53.877Z,20.20
2018-07-26T02:21:22.205Z,20.20
2018-07-26T02:23:50.404Z,20.10
2018-07-26T02:26:18.653Z,20.10
2018-07-26T02:28:46.841Z,20.10
2018-07-26T02:31:15.050Z,20.00
2018-07-26T02:33:43.249Z,20.00
2018-07-26T02:36:11.454Z,20.00
2018-07-26T02:38:39.662Z,20.00
2018-07-26T02:41:08.313Z,20.00
2018-07-26T02:43:36.486Z,20.00
2018-07-26T02:46:04.726Z,20.00
2018-07-26T02:57:44.915Z,19.80
2018-07-26T03:00:13.286Z,19.20
2018-07-26T03:02:41.541Z,19.20
2018-07-26T03:05:10.202Z,19.30
2018-07-26T03:07:38.429Z,19.40
2018-07-26T03:10:06.918Z,19.40
2018-07-26T03:12:35.146Z,19.40
2018-07-26T03:15:03.378Z,19.50
2018-07-26T03:17:31.650Z,19.50
2018-07-26T03:19:59.890Z,19.50
2018-07-26T03:22:28.621Z,19.50
2018-07-26T03:27:24.933Z,19.50
2018-07-26T03:29:53.135Z,19.50
2018-07-26T03:32:21.376Z,19.50
2018-07-26T03:34:49.627Z,19.50
2018-07-26T03:37:17.838Z,19.50
2018-07-26T03:39:46.081Z,19.60
2018-07-26T03:42:14.301Z,19.60
2018-07-26T03:44:42.569Z,19.60
2018-07-26T03:47:10.930Z,19.70
2018-07-26T03:49:39.142Z,19.70
2018-07-26T03:52:07.377Z,19.80
2018-07-26T03:54:35.632Z,19.80
2018-07-26T03:57:03.842Z,19.80
2018-07-26T03:59:32.074Z,19.80
2018-07-26T04:02:00.276Z,19.70
2018-07-26T04:04:28.493Z,19.80
2018-07-26T04:06:56.759Z,19.80
2018-07-26T04:09:25.026Z,19.80
2018-07-26T04:11:53.270Z,19.80
2018-07-26T04:14:21.529Z,19.80
2018-07-26T04:16:49.757Z,19.80
2018-07-26T04:19:17.992Z,19.90
2018-07-26T04:21:46.211Z,19.90
2018-07-26T04:24:14.430Z,20.00
2018-07-26T04:26:42.673Z,20.00
2018-07-26T04:29:10.921Z,20.00
2018-07-26T04:31:39.128Z,20.00
2018-07-26T04:34:07.348Z,20.00
2018-07-26T04:36:35.570Z,20.10
2018-07-26T04:39:05.843Z,20.10
2018-07-26T04:41:34.084Z,20.10
2018-07-26T04:44:02.341Z,20.20
2018-07-26T04:46:30.575Z,20.20
2018-07-26T04:48:58.866Z,20.30
2018-07-26T04:53:55.282Z,20.20
2018-07-26T04:56:23.531Z,20.30
2018-07-26T04:58:51.742Z,20.30
2018-07-26T05:01:20.002Z,20.30
2018-07-26T05:03:48.255Z,20.40
2018-07-26T05:06:16.546Z,20.40
2018-07-26T05:11:12.737Z,20.40
2018-07-26T05:13:41.139Z,20.40
2018-07-26T05:16:09.402Z,20.50
2018-07-26T05:18:37.630Z,20.50
2018-07-26T05:21:05.867Z,20.60
2018-07-26T05:23:34.078Z,20.60
2018-07-26T05:26:02.288Z,20.70
2018-07-26T05:28:30.557Z,20.70
2018-07-26T05:30:58.747Z,20.70
2018-07-26T05:33:27.022Z,20.80
2018-07-26T05:35:55.298Z,20.90
2018-07-26T05:38:23.530Z,20.90
2018-07-26T05:40:51.781Z,21.00
2018-07-26T05:43:20.077Z,21.10
2018-07-26T05:45:48.293Z,21.20
2018-07-26T05:48:16.513Z,21.20
2018-07-26T05:50:44.725Z,21.30
2018-07-26T05:53:12.949Z,21.40
2018-07-26T05:55:41.168Z,21.50
2018-07-26T05:58:09.503Z,21.60
2018-07-26T06:00:37.769Z,21.70
2018-07-26T06:03:06.137Z,21.80
2018-07-26T06:05:34.335Z,21.90
2018-07-26T06:08:02.549Z,22.00
2018-07-26T06:10:30.734Z,22.10
2018-07-26T06:12:58.945Z,22.10
2018-07-26T06:15:27.121Z,22.20
2018-07-26T06:17:55.337Z,22.30
2018-07-26T06:20:23.656Z,22.40
2018-07-26T06:22:51.925Z,22.50
2018-07-26T06:25:20.162Z,22.60
2018-07-26T06:27:48.498Z,22.70
2018-07-26T06:30:16.681Z,22.80
2018-07-26T06:32:44.905Z,22.80
2018-07-26T06:35:13.137Z,22.90
2018-07-26T06:37:42.354Z,23.00
2018-07-26T06:42:38.731Z,23.10
2018-07-26T06:45:07.918Z,23.20
2018-07-26T06:47:36.193Z,23.20
2018-07-26T06:50:06.293Z,23.20
2018-07-26T06:52:34.637Z,23.20
2018-07-26T06:55:02.966Z,23.30
2018-07-26T06:57:31.210Z,23.30
2018-07-26T06:59:59.483Z,23.40
2018-07-26T07:02:27.794Z,23.40
2018-07-26T07:04:56.074Z,23.50
2018-07-26T07:09:52.302Z,23.70
2018-07-26T07:12:20.563Z,23.70
2018-07-26T07:14:48.849Z,23.80
2018-07-26T07:17:17.130Z,23.90
2018-07-26T07:19:45.424Z,23.90
2018-07-26T07:24:42.094Z,24.10
2018-07-26T07:27:10.345Z,24.10
2018-07-26T07:29:38.827Z,24.20
2018-07-26T07:32:07.192Z,24.20
2018-07-26T07:34:35.521Z,24.30
2018-07-26T07:37:03.778Z,24.30
2018-07-26T07:42:00.043Z,24.50
2018-07-26T07:44:28.345Z,24.50
2018-07-26T07:46:56.802Z,24.70
2018-07-26T07:49:25.105Z,24.70
2018-07-26T07:51:53.314Z,24.70
2018-07-26T07:54:21.590Z,24.80
2018-07-26T07:56:49.834Z,24.90
2018-07-26T07:59:18.083Z,25.00
2018-07-26T08:01:46.351Z,25.10
2018-07-26T08:04:14.610Z,25.20
2018-07-26T08:06:42.898Z,25.30
2018-07-26T08:09:12.072Z,25.40
2018-07-26T08:14:09.117Z,25.60
2018-07-26T08:16:37.549Z,25.60
2018-07-26T08:19:05.906Z,25.60
2018-07-26T08:24:02.282Z,25.70
2018-07-26T08:26:30.648Z,25.70
2018-07-26T08:28:58.933Z,25.80
2018-07-26T08:31:27.336Z,25.80
2018-07-26T08:33:55.615Z,25.80
2018-07-26T08:36:23.889Z,25.80
2018-07-26T08:38:52.160Z,25.90
2018-07-26T08:41:20.515Z,25.90
2018-07-26T08:43:48.750Z,26.00
2018-07-26T08:48:45.153Z,26.20
2018-07-26T08:51:13.451Z,26.20
2018-07-26T08:53:41.783Z,26.20
2018-07-26T08:56:10.028Z,26.20
2018-07-26T08:58:38.314Z,26.20
2018-07-26T09:01:06.599Z,26.30
2018-07-26T09:03:34.901Z,26.30
2018-07-26T09:06:03.207Z,26.40
2018-07-26T09:08:31.513Z,26.40
2018-07-26T09:10:59.747Z,26.40
2018-07-26T09:13:28.106Z,26.40
2018-07-26T09:18:24.529Z,26.60
2018-07-26T09:20:52.792Z,26.60
2018-07-26T09:23:21.185Z,26.50
2018-07-26T09:25:49.419Z,26.50
2018-07-26T09:28:17.726Z,26.60
2018-07-26T09:30:46.046Z,26.60
2018-07-26T09:33:14.392Z,26.70
2018-07-26T09:35:42.647Z,26.70
2018-07-26T09:38:11.114Z,26.90
2018-07-26T09:40:39.429Z,26.90
2018-07-26T09:43:07.717Z,27.00
2018-07-26T09:45:35.965Z,27.10
2018-07-26T09:48:04.250Z,27.20
2018-07-26T09:50:32.498Z,27.30
2018-07-26T09:53:00.770Z,27.40
2018-07-26T09:55:29.035Z,27.50
2018-07-26T09:57:57.322Z,27.60
2018-07-26T10:00:31.606Z,27.70
2018-07-26T10:02:59.843Z,27.80
2018-07-26T10:05:28.171Z,27.80
2018-07-26T10:07:56.465Z,27.90
2018-07-26T10:10:24.774Z,28.00
2018-07-26T10:15:21.070Z,28.20
2018-07-26T10:17:50.215Z,28.40
2018-07-26T10:22:47.333Z,28.60
2018-07-26T10:25:15.714Z,28.70
2018-07-26T10:27:44.080Z,28.80
2018-07-26T10:30:13.033Z,28.90
2018-07-26T10:35:09.649Z,28.90
2018-07-26T10:37:37.916Z,28.90
2018-07-26T10:40:06.234Z,28.90
2018-07-26T10:42:34.517Z,28.80
2018-07-26T10:45:02.746Z,28.90
2018-07-26T10:47:31.006Z,29.10
2018-07-26T10:49:59.458Z,29.40
2018-07-26T10:52:28.234Z,29.70
2018-07-26T10:54:56.537Z,29.90
2018-07-26T10:57:24.811Z,30.00
2018-07-26T10:59:53.781Z,30.10
2018-07-26T11:02:21.999Z,30.20
2018-07-26T11:04:50.450Z,30.40
2018-07-26T11:07:18.991Z,30.70
2018-07-26T11:09:47.519Z,30.90
2018-07-26T11:12:15.831Z,30.90
2018-07-26T11:14:44.111Z,31.20
2018-07-26T11:17:12.371Z,31.70
2018-07-26T11:19:40.730Z,32.50
2018-07-26T11:22:09.022Z,33.30
2018-07-26T11:24:37.375Z,34.00
2018-07-26T11:27:05.950Z,34.50
2018-07-26T11:29:34.175Z,34.90
2018-07-26T11:32:02.369Z,35.50
2018-07-26T11:34:30.694Z,36.60
2018-07-26T11:36:58.898Z,38.00
2018-07-26T11:39:27.173Z,39.50
2018-07-26T11:41:56.582Z,40.90
2018-07-26T11:44:24.854Z,41.60
2018-07-26T11:46:53.305Z,42.10
2018-07-26T11:49:21.533Z,42.10
2018-07-26T11:51:49.742Z,41.80
2018-07-26T11:54:18.243Z,41.30
2018-07-26T11:56:46.439Z,41.30
2018-07-26T11:59:15.010Z,41.50
2018-07-26T12:01:43.242Z,42.20
2018-07-26T12:04:11.419Z,43.60
2018-07-26T12:09:09.438Z,47.00
2018-07-26T12:11:38.046Z,48.20
2018-07-26T12:14:06.263Z,48.60
2018-07-26T12:16:34.561Z,49.20
2018-07-26T12:19:03.080Z,50.40
2018-07-26T12:21:31.350Z,51.40
2018-07-26T12:23:59.633Z,51.60
2018-07-26T12:26:27.921Z,51.80
2018-07-26T12:28:56.191Z,52.20
2018-07-26T12:31:24.756Z,52.70
2018-07-26T12:33:53.266Z,53.10
2018-07-26T12:36:22.145Z,53.20
2018-07-26T12:38:50.974Z,52.70
2018-07-26T12:41:19.223Z,52.30
2018-07-26T12:43:47.492Z,52.40
2018-07-26T12:46:15.754Z,52.60
2018-07-26T12:48:43.962Z,53.20
2018-07-26T12:51:12.237Z,53.40
2018-07-26T12:53:40.473Z,53.50
2018-07-26T12:56:09.002Z,53.20
2018-07-26T12:58:37.329Z,53.30
2018-07-26T13:01:05.816Z,53.80
2018-07-26T13:03:34.052Z,53.90
2018-07-26T13:08:30.444Z,53.30
2018-07-26T13:10:58.715Z,53.00
2018-07-26T13:13:27.056Z,52.70
2018-07-26T13:15:55.368Z,51.10
2018-07-26T13:18:23.957Z,50.40
2018-07-26T13:20:52.258Z,50.50
2018-07-26T13:23:21.874Z,51.30
2018-07-26T13:25:50.123Z,52.10
2018-07-26T13:28:19.426Z,52.70
2018-07-26T13:30:47.784Z,53.20
2018-07-26T13:33:16.677Z,53.80
2018-07-26T13:35:44.975Z,54.10
2018-07-26T13:38:13.383Z,54.20
2018-07-26T13:40:41.737Z,54.40
2018-07-26T13:43:09.990Z,54.50
2018-07-26T13:45:38.293Z,54.50
2018-07-26T13:48:06.571Z,54.70
2018-07-26T13:50:34.813Z,54.90
2018-07-26T13:53:03.197Z,55.00
2018-07-26T13:55:31.484Z,54.90
2018-07-26T13:57:59.726Z,55.00
2018-07-26T14:00:27.971Z,55.50
2018-07-26T14:02:56.609Z,55.80
2018-07-26T14:05:25.391Z,55.90
2018-07-26T14:07:53.774Z,56.30
2018-07-26T14:10:22.045Z,56.80
2018-07-26T14:12:50.338Z,57.30
2018-07-26T14:15:18.726Z,57.40
2018-07-26T14:17:47.181Z,57.60
2018-07-26T14:20:15.413Z,57.40
2018-07-26T14:22:43.655Z,57.30
2018-07-26T14:25:12.222Z,55.30
2018-07-26T14:27:40.525Z,54.40
2018-07-26T14:30:09.025Z,54.50
2018-07-26T14:32:37.309Z,54.90
2018-07-26T14:35:06.182Z,55.30
2018-07-26T14:37:34.918Z,55.90
2018-07-26T14:40:03.212Z,56.40
2018-07-26T14:42:31.497Z,57.00
2018-07-26T14:44:59.779Z,57.50
2018-07-26T14:47:28.232Z,57.70
2018-07-26T14:49:56.473Z,56.20
2018-07-26T14:54:52.758Z,55.10
2018-07-26T14:57:21.444Z,55.60
2018-07-26T14:59:49.685Z,55.90
2018-07-26T15:02:17.955Z,55.80
2018-07-26T15:04:47.158Z,56.00
2018-07-26T15:07:15.438Z,55.50
2018-07-26T15:12:11.787Z,55.50
2018-07-26T15:14:40.026Z,56.40
2018-07-26T15:17:08.358Z,57.10
2018-07-26T15:19:36.656Z,57.70
2018-07-26T15:22:05.014Z,58.40
2018-07-26T15:24:34.373Z,58.40
2018-07-26T15:27:02.657Z,58.50
2018-07-26T15:29:30.914Z,58.80
2018-07-26T15:31:59.305Z,58.90
2018-07-26T15:34:28.063Z,58.70
2018-07-26T15:36:56.329Z,58.60
2018-07-26T15:39:24.629Z,58.70
2018-07-26T15:41:53.078Z,58.80
2018-07-26T15:44:21.361Z,59.00
2018-07-26T15:46:50.274Z,58.70
2018-07-26T15:49:18.567Z,58.50
2018-07-26T15:51:46.869Z,58.60
2018-07-26T15:56:43.287Z,58.20
2018-07-26T15:59:11.560Z,58.10
2018-07-26T16:01:39.910Z,58.20
2018-07-26T16:04:08.167Z,57.90
2018-07-26T16:06:36.666Z,57.20
2018-07-26T16:09:07.996Z,56.40
2018-07-26T16:11:36.710Z,56.20
2018-07-26T16:14:05.047Z,56.10
2018-07-26T16:16:33.435Z,56.10
2018-07-26T16:19:02.242Z,56.30
2018-07-26T16:21:30.486Z,56.10
2018-07-26T16:23:58.781Z,55.70
2018-07-26T16:26:27.048Z,55.60
2018-07-26T16:28:55.558Z,55.80
2018-07-26T16:31:23.869Z,55.90
2018-07-26T16:33:52.127Z,55.90
2018-07-26T16:36:20.529Z,55.80
2018-07-26T16:38:49.064Z,55.50
2018-07-26T16:41:17.337Z,55.40
2018-07-26T16:43:45.569Z,55.30
2018-07-26T16:46:13.837Z,55.00
2018-07-26T16:48:42.255Z,54.70
2018-07-26T16:51:10.545Z,54.40
2018-07-26T16:53:38.802Z,54.00
2018-07-26T16:56:07.025Z,52.60
2018-07-26T16:58:35.504Z,51.90
2018-07-26T17:01:03.957Z,52.20
2018-07-26T17:03:32.194Z,51.00
2018-07-26T17:08:28.580Z,45.50
2018-07-26T17:10:56.825Z,42.90
2018-07-26T17:13:25.279Z,40.80
2018-07-26T17:15:53.517Z,39.10
2018-07-26T17:18:21.783Z,37.80
2018-07-26T17:20:50.170Z,36.90
2018-07-26T17:23:18.838Z,36.20
2018-07-26T17:25:47.150Z,35.50
2018-07-26T17:28:15.337Z,35.00
2018-07-26T17:30:43.630Z,34.40
2018-07-26T17:33:11.850Z,34.10
2018-07-26T17:35:40.070Z,33.70
2018-07-26T17:38:08.358Z,33.40
2018-07-26T17:40:36.889Z,33.10
2018-07-26T17:43:05.113Z,32.80
2018-07-26T17:45:33.381Z,32.50
2018-07-26T17:48:01.589Z,32.20
2018-07-26T17:50:29.898Z,32.00
2018-07-26T17:52:58.154Z,31.80
2018-07-26T17:55:26.524Z,31.50
2018-07-26T17:57:54.798Z,31.30
2018-07-26T18:00:23.042Z,31.20
2018-07-26T18:02:51.311Z,31.10
2018-07-26T18:05:19.567Z,31.00
2018-07-26T18:07:47.861Z,30.90
2018-07-26T18:10:16.102Z,30.80
2018-07-26T18:12:44.376Z,30.60
2018-07-26T18:15:12.677Z,30.40
2018-07-26T18:17:41.024Z,30.30
2018-07-26T18:20:09.256Z,30.10
2018-07-26T18:22:37.509Z,30.00
2018-07-26T18:25:05.791Z,29.80
2018-07-26T18:27:34.117Z,29.70
2018-07-26T18:30:02.331Z,29.40
2018-07-26T18:32:31.173Z,29.30
2018-07-26T18:34:59.453Z,29.10
2018-07-26T18:37:27.857Z,28.90
2018-07-26T18:39:56.058Z,28.80
2018-07-26T18:42:24.299Z,28.60
2018-07-26T18:44:52.503Z,28.50
2018-07-26T18:47:20.759Z,28.40
2018-07-26T18:49:49.041Z,28.30
2018-07-26T18:52:17.366Z,28.10
2018-07-26T18:54:45.637Z,28.00
2018-07-26T18:57:13.961Z,27.90
2018-07-26T18:59:42.141Z,27.80
2018-07-26T19:02:10.389Z,27.70
2018-07-26T19:04:38.673Z,27.70
2018-07-26T19:07:07.065Z,27.70
2018-07-26T19:09:36.173Z,27.60
2018-07-26T19:12:04.539Z,27.60
2018-07-26T19:14:32.720Z,27.50
2018-07-26T19:17:01.017Z,27.40
2018-07-26T19:19:29.245Z,27.30
2018-07-26T19:21:57.488Z,27.20
2018-07-26T19:24:25.877Z,27.20
2018-07-26T19:26:54.127Z,27.10
2018-07-26T19:29:22.574Z,27.10
2018-07-26T19:31:50.773Z,27.00
2018-07-26T19:34:19.054Z,26.90
2018-07-26T19:36:47.278Z,26.90
2018-07-26T19:39:15.477Z,26.80
2018-07-26T19:41:43.693Z,26.80
2018-07-26T19:44:11.985Z,26.70
2018-07-26T19:46:40.176Z,26.60
2018-07-26T19:49:08.425Z,26.50
2018-07-26T19:51:36.653Z,26.50
2018-07-26T19:54:04.914Z,26.40
2018-07-26T19:56:33.234Z,26.40
2018-07-26T19:59:01.441Z,26.40
2018-07-26T20:01:29.663Z,26.40
2018-07-26T20:03:57.846Z,26.40
2018-07-26T20:06:26.081Z,26.30
2018-07-26T20:08:54.292Z,26.20
2018-07-26T20:18:06.951Z,26.20
2018-07-26T20:20:35.214Z,25.70
2018-07-26T20:23:03.622Z,25.70
2018-07-26T20:25:31.856Z,25.60
2018-07-26T20:28:00.117Z,25.70
2018-07-26T20:30:28.314Z,25.70
2018-07-26T20:32:57.052Z,25.70
2018-07-26T20:35:25.232Z,25.70
2018-07-26T20:37:54.121Z,25.60
2018-07-26T20:42:51.364Z,25.60
2018-07-26T20:45:19.574Z,25.60
2018-07-26T20:50:15.881Z,25.50
2018-07-26T20:52:44.085Z,25.50
2018-07-26T20:57:40.274Z,25.40
2018-07-26T21:00:10.348Z,25.30
2018-07-26T21:02:38.580Z,25.30
2018-07-26T21:05:06.850Z,25.20
2018-07-26T21:07:35.046Z,25.10
2018-07-26T21:10:03.273Z,25.10
2018-07-26T21:12:31.470Z,24.90
2018-07-26T21:14:59.686Z,25.00
2018-07-26T21:17:28.120Z,24.90
2018-07-26T21:19:56.306Z,24.80
2018-07-26T21:29:08.539Z,24.60
2018-07-26T21:31:36.759Z,24.20
2018-07-26T21:34:04.956Z,24.10
2018-07-26T21:36:33.169Z,24.10
2018-07-26T21:39:01.362Z,24.10
2018-07-26T21:41:29.562Z,24.10
2018-07-26T21:43:57.766Z,24.00
2018-07-26T21:46:26.092Z,24.00
2018-07-26T21:48:54.318Z,23.80
2018-07-26T21:51:22.619Z,23.70
2018-07-26T21:53:50.815Z,23.60
2018-07-26T21:56:19.011Z,23.60
2018-07-26T21:58:47.225Z,23.50
2018-07-26T22:01:15.514Z,23.50
2018-07-26T22:03:43.713Z,23.50
2018-07-26T22:06:11.964Z,23.60
2018-07-26T22:08:40.300Z,23.60
2018-07-26T22:11:08.465Z,23.60
2018-07-26T22:13:36.696Z,23.70
2018-07-26T22:16:04.926Z,23.70
2018-07-26T22:18:33.176Z,23.70
2018-07-26T22:21:01.367Z,23.60
2018-07-26T22:23:29.623Z,23.60
2018-07-26T22:25:57.824Z,23.70
2018-07-26T22:28:26.038Z,23.60
2018-07-26T22:30:54.524Z,23.60
2018-07-26T22:33:22.714Z,23.60
2018-07-26T22:35:50.913Z,23.50
2018-07-26T22:38:19.157Z,23.50
2018-07-26T22:40:47.626Z,23.50
2018-07-26T22:43:15.837Z,23.50
2018-07-26T22:45:44.113Z,23.50
2018-07-26T22:48:12.374Z,23.40
2018-07-26T22:50:40.638Z,23.30
2018-07-26T22:53:08.927Z,23.30
2018-07-26T22:55:37.146Z,23.30
2018-07-26T22:58:05.386Z,23.10
2018-07-26T23:00:33.632Z,23.10
2018-07-26T23:03:01.830Z,23.10
2018-07-26T23:05:30.030Z,23.00
2018-07-26T23:07:58.254Z,23.00
2018-07-26T23:10:26.473Z,23.00
2018-07-26T23:12:54.682Z,23.00
2018-07-26T23:15:22.959Z,22.90
2018-07-26T23:17:51.362Z,22.90
2018-07-26T23:20:19.718Z,22.80
2018-07-26T23:22:51.906Z,22.70
2018-07-26T23:25:20.370Z,22.70
2018-07-26T23:27:48.606Z,22.40
2018-07-26T23:30:16.836Z,22.30
2018-07-26T23:32:45.309Z,22.20
2018-07-26T23:35:13.507Z,22.30
2018-07-26T23:37:41.809Z,22.30
2018-07-26T23:40:11.017Z,22.10
2018-07-26T23:42:39.710Z,22.10
2018-07-26T23:45:07.927Z,22.00
2018-07-26T23:47:36.187Z,22.00
2018-07-26T23:50:05.046Z,21.80
2018-07-26T23:52:33.302Z,21.80
2018-07-26T23:55:01.514Z,21.70
2018-07-26T23:57:29.825Z,21.60
2018-07-26T23:59:58.213Z,21.50
